Time;durP1;ratioP1;P1;durP2;ratioP2;P2;SDS_P1;SDS_P2;PMS_P1;PMS_P2;Temp;Humidity;BMP_temperature;BMP_pressure;BME280_temperature;BME280_humidity;BME280_pressure;Samples;Min_cycle;Max_cycle;Signal;HPM_P1;HPM_P2
2023/01/10 00:00:48;;;;;;;3.00;2.17;;;6.60;47.00;;;;;;4994605;28;20475;-56
2023/01/10 00:03:15;;;;;;;2.33;2.10;;;6.60;46.30;;;;;;4997061;28;20495;-52
2023/01/10 00:05:41;;;;;;;2.30;2.07;;;6.60;44.90;;;;;;4993785;28;20483;-51
2023/01/10 00:08:09;;;;;;;3.03;2.50;;;6.60;44.00;;;;;;4991714;28;21754;-52
2023/01/10 00:10:36;;;;;;;4.40;2.40;;;6.60;39.10;;;;;;4993458;28;20494;-52
2023/01/10 00:15:48;;;;;;;3.13;2.83;;;6.60;36.40;;;;;;4986275;28;20509;-55
2023/01/10 00:18:15;;;;;;;2.70;2.47;;;6.60;35.90;;;;;;4986930;28;20512;-52
2023/01/10 00:20:44;;;;;;;3.90;2.37;;;6.60;35.30;;;;;;4994241;28;20455;-52
2023/01/10 00:23:11;;;;;;;3.70;3.10;;;6.60;32.70;;;;;;4993915;28;20550;-52
2023/01/10 00:25:37;;;;;;;3.33;2.87;;;6.60;30.90;;;;;;4992500;28;20540;-52
2023/01/10 00:28:16;;;;;;;5.43;3.27;;;6.60;28.90;;;;;;4990750;28;20499;-52
2023/01/10 00:30:42;;;;;;;3.53;3.20;;;6.60;26.90;;;;;;4987156;28;20445;-53
2023/01/10 00:33:18;;;;;;;2.97;2.77;;;6.50;25.00;;;;;;4996813;28;20487;-51
2023/01/10 00:35:45;;;;;;;3.60;3.30;;;6.50;22.10;;;;;;4998534;28;20448;-52
2023/01/10 00:38:12;;;;;;;4.30;3.43;;;6.50;22.20;;;;;;4998491;28;20465;-60
2023/01/10 00:40:39;;;;;;;3.50;3.20;;;6.50;20.50;;;;;;5000019;28;20456;-52
2023/01/10 00:45:50;;;;;;;3.50;3.20;;;6.50;79.30;;;;;;5000376;28;20514;-51
2023/01/10 00:48:18;;;;;;;4.50;3.00;;;6.50;94.20;;;;;;4998510;28;20488;-51
2023/01/10 00:50:45;;;;;;;3.60;3.30;;;6.50;91.00;;;;;;4993867;28;20530;-51
2023/01/10 00:53:12;;;;;;;3.30;3.00;;;6.40;93.00;;;;;;4993224;28;20498;-51
2023/01/10 00:55:39;;;;;;;3.43;3.23;;;6.40;98.50;;;;;;4989899;28;20472;-51
2023/01/10 00:58:07;;;;;;;3.20;3.00;;;6.40;93.60;;;;;;5000167;28;20466;-52
2023/01/10 01:00:34;;;;;;;3.63;3.40;;;6.50;98.80;;;;;;4994930;28;20566;-52
2023/01/10 01:03:00;;;;;;;4.27;3.90;;;6.40;99.90;;;;;;4996520;28;20582;-51
2023/01/10 01:05:28;;;;;;;4.40;2.70;;;6.40;99.90;;;;;;4995406;28;20481;-52
2023/01/10 01:07:55;;;;;;;4.10;3.60;;;6.40;99.90;;;;;;4997536;28;20487;-52
2023/01/10 01:10:27;;;;;;;4.10;3.67;;;6.40;99.90;;;;;;4994083;28;20522;-56
2023/01/10 01:12:55;;;;;;;3.57;3.27;;;6.40;99.90;;;;;;4992809;28;20492;-52
2023/01/10 01:15:22;;;;;;;3.90;3.50;;;6.30;99.90;;;;;;4996447;28;20476;-51
2023/01/10 01:17:48;;;;;;;3.20;3.00;;;6.40;95.40;;;;;;4997597;28;20521;-52
2023/01/10 01:20:16;;;;;;;3.53;3.23;;;6.40;94.30;;;;;;4995171;28;20942;-51
2023/01/10 01:22:44;;;;;;;3.30;3.00;;;6.40;88.70;;;;;;4994290;28;21070;-51
2023/01/10 01:25:10;;;;;;;3.10;2.80;;;6.30;93.20;;;;;;4994995;28;20471;-52
2023/01/10 01:27:37;;;;;;;2.77;2.57;;;6.30;95.10;;;;;;4989973;28;20537;-52
2023/01/10 01:30:05;;;;;;;3.40;3.10;;;6.30;99.90;;;;;;4992830;28;20451;-51
2023/01/10 01:32:32;;;;;;;3.87;3.43;;;6.30;98.10;;;;;;4994670;28;20471;-51
2023/01/10 01:34:58;;;;;;;3.20;2.90;;;6.30;99.90;;;;;;4995412;28;20514;-51
2023/01/10 01:37:25;;;;;;;3.37;3.07;;;6.30;99.90;;;;;;4993849;28;20474;-51
2023/01/10 01:39:53;;;;;;;4.50;3.67;;;6.30;99.90;;;;;;4994271;28;20542;-51
2023/01/10 01:42:23;;;;;;;3.40;3.10;;;6.30;99.90;;;;;;4994285;28;20545;-51
2023/01/10 01:45:23;;;;;;;4.60;3.70;;;6.30;99.90;;;;;;4993935;28;20880;-51
2023/01/10 01:47:55;;;;;;;4.47;4.07;;;6.20;99.90;;;;;;4989322;28;20479;-51
2023/01/10 01:50:27;;;;;;;4.53;3.40;;;6.10;99.90;;;;;;4995089;28;20514;-51
2023/01/10 01:52:57;;;;;;;3.70;3.40;;;6.10;99.90;;;;;;4993771;28;20546;-51
2023/01/10 01:55:27;;;;;;;4.17;3.77;;;6.00;99.90;;;;;;4993209;28;20506;-51
2023/01/10 01:57:55;;;;;;;4.37;3.80;;;5.90;99.90;;;;;;4994126;28;20517;-51
2023/01/10 02:00:22;;;;;;;3.83;3.60;;;5.90;99.90;;;;;;4999573;28;20440;-51
2023/01/10 02:02:51;;;;;;;6.67;4.00;;;5.80;99.90;;;;;;4997953;28;20545;-52
2023/01/10 02:05:21;;;;;;;4.00;3.70;;;5.70;99.90;;;;;;5010612;28;20443;-51
2023/01/10 02:07:52;;;;;;;5.33;4.07;;;5.60;99.90;;;;;;5012748;28;20492;-52
2023/01/10 02:10:24;;;;;;;3.97;3.60;;;5.60;99.90;;;;;;5014227;28;20453;-51
2023/01/10 02:12:54;;;;;;;3.60;3.40;;;5.50;99.90;;;;;;5004185;28;20491;-51
2023/01/10 02:15:22;;;;;;;4.30;3.80;;;5.50;99.90;;;;;;4993809;28;20467;-51
2023/01/10 02:17:51;;;;;;;3.63;3.30;;;5.30;99.90;;;;;;4993736;28;20529;-51
2023/01/10 02:20:21;;;;;;;4.10;3.27;;;5.40;99.90;;;;;;4991220;28;20463;-52
2023/01/10 02:23:36;;;;;;;6.03;3.10;;;5.30;99.90;;;;;;4991670;28;20534;-53
2023/01/10 02:26:35;;;;;;;3.47;3.17;;;5.20;99.90;;;;;;4934548;29;20527;-52
2023/01/10 02:32:26;;;;;;;3.63;3.10;;;5.10;99.90;;;;;;4988487;28;20475;-53
2023/01/10 02:35:04;;;;;;;4.20;3.27;;;5.00;99.90;;;;;;4990062;28;20997;-52
2023/01/10 02:37:43;;;;;;;3.03;2.93;;;5.00;99.90;;;;;;4984777;28;20499;-53
2023/01/10 02:40:16;;;;;;;3.50;3.20;;;4.90;99.90;;;;;;4989933;28;20534;-52
2023/01/10 02:42:48;;;;;;;2.87;2.70;;;4.90;99.90;;;;;;4985548;28;20495;-52
2023/01/10 02:45:18;;;;;;;4.00;3.27;;;4.90;99.90;;;;;;4989938;28;20514;-53
2023/01/10 02:47:45;;;;;;;5.23;3.50;;;4.90;99.90;;;;;;4989192;28;20490;-53
2023/01/10 02:50:29;;;;;;;4.20;3.80;;;5.00;99.90;;;;;;4992566;28;20516;-52
2023/01/10 02:52:58;;;;;;;4.17;3.23;;;5.00;99.90;;;;;;4991952;28;20511;-53
2023/01/10 02:55:30;;;;;;;3.97;3.70;;;4.90;99.90;;;;;;4990136;28;21055;-52
2023/01/10 02:58:03;;;;;;;9.33;3.73;;;5.00;99.90;;;;;;4986518;28;20502;-53
2023/01/10 03:00:44;;;;;;;5.93;3.70;;;5.00;99.90;;;;;;4990263;28;20588;-53
2023/01/10 03:03:31;;;;;;;3.70;3.47;;;4.90;99.90;;;;;;4993612;28;20498;-53
2023/01/10 03:06:08;;;;;;;3.70;2.93;;;4.90;99.90;;;;;;4987322;28;20478;-55
2023/01/10 03:08:40;;;;;;;4.23;3.80;;;4.90;99.90;;;;;;4989885;28;20878;-55
2023/01/10 03:11:09;;;;;;;3.57;3.10;;;4.80;99.90;;;;;;4991465;28;20465;-55
2023/01/10 03:13:41;;;;;;;3.60;3.30;;;4.80;99.90;;;;;;4984970;28;20499;-56
2023/01/10 03:16:13;;;;;;;4.07;3.27;;;4.80;99.90;;;;;;4989676;28;20503;-56
2023/01/10 03:18:46;;;;;;;2.90;2.60;;;4.80;99.90;;;;;;4990268;28;20472;-56
2023/01/10 03:21:14;;;;;;;3.77;3.20;;;4.80;99.90;;;;;;4993314;28;20588;-56
2023/01/10 03:23:40;;;;;;;3.90;3.00;;;4.80;99.90;;;;;;4991163;28;20490;-56
2023/01/10 03:26:09;;;;;;;3.13;2.93;;;4.90;99.90;;;;;;4993039;28;20494;-56
2023/01/10 03:28:43;;;;;;;3.37;3.17;;;4.90;99.90;;;;;;4991180;28;20608;-56
2023/01/10 03:31:14;;;;;;;3.10;2.80;;;4.90;99.90;;;;;;4985263;28;20508;-56
2023/01/10 03:33:43;;;;;;;3.30;3.10;;;5.00;99.90;;;;;;4986404;28;20499;-54
2023/01/10 03:36:19;;;;;;;4.23;3.60;;;5.00;99.90;;;;;;4985334;28;20517;-55
2023/01/10 03:38:51;;;;;;;3.10;2.90;;;5.10;99.90;;;;;;4988735;28;20509;-55
2023/01/10 03:41:26;;;;;;;4.20;2.80;;;5.10;99.90;;;;;;4992928;28;20494;-55
2023/01/10 03:46:54;;;;;;;3.67;3.37;;;5.30;99.90;;;;;;4966855;28;20447;-56
2023/01/10 03:49:24;;;;;;;4.80;2.67;;;5.30;99.90;;;;;;4988738;28;20495;-56
2023/01/10 03:51:51;;;;;;;7.63;3.07;;;5.40;99.90;;;;;;4990543;28;20511;-56
2023/01/10 03:54:18;;;;;;;3.13;2.93;;;5.50;99.90;;;;;;4989571;28;20500;-56
2023/01/10 03:56:46;;;;;;;4.00;3.40;;;5.50;99.90;;;;;;4990944;28;20497;-56
2023/01/10 03:59:13;;;;;;;5.93;3.60;;;5.50;99.90;;;;;;4989924;28;20495;-55
2023/01/10 04:01:40;;;;;;;5.40;3.60;;;5.50;99.90;;;;;;4990022;28;20915;-56
2023/01/10 04:04:06;;;;;;;3.73;3.30;;;5.50;99.90;;;;;;4991234;28;20503;-55
2023/01/10 04:06:34;;;;;;;4.53;3.00;;;5.60;99.90;;;;;;4988495;28;20499;-56
2023/01/10 04:09:01;;;;;;;3.90;3.60;;;5.60;99.90;;;;;;4988536;28;20478;-55
2023/01/10 04:11:27;;;;;;;3.27;3.07;;;5.60;99.90;;;;;;4982578;28;20549;-55
2023/01/10 04:13:54;;;;;;;3.57;3.13;;;5.60;99.90;;;;;;4990793;28;20990;-56
2023/01/10 04:16:21;;;;;;;4.47;3.20;;;5.60;99.90;;;;;;4991648;28;20993;-56
2023/01/10 04:18:47;;;;;;;3.37;2.70;;;5.60;99.90;;;;;;4990065;28;20483;-55
2023/01/10 04:21:14;;;;;;;4.30;3.90;;;5.60;99.90;;;;;;4991112;28;20497;-55
2023/01/10 04:23:42;;;;;;;3.43;3.23;;;5.60;99.90;;;;;;4989195;28;20474;-55
2023/01/10 04:26:09;;;;;;;3.80;3.40;;;5.60;99.90;;;;;;4993471;28;20498;-55
2023/01/10 04:28:35;;;;;;;7.10;4.13;;;5.60;99.90;;;;;;4994344;28;20914;-55
2023/01/10 04:31:02;;;;;;;5.10;3.50;;;5.60;99.90;;;;;;4990450;28;20496;-56
2023/01/10 04:33:28;;;;;;;5.30;4.20;;;5.60;99.90;;;;;;4991978;28;20879;-56
2023/01/10 04:35:56;;;;;;;4.67;3.40;;;5.60;99.90;;;;;;4992294;28;20499;-56
2023/01/10 04:38:22;;;;;;;7.90;4.20;;;5.60;99.90;;;;;;4992315;28;20960;-56
2023/01/10 04:40:54;;;;;;;6.60;4.13;;;5.60;99.90;;;;;;4992343;28;20579;-56
2023/01/10 04:43:21;;;;;;;3.67;3.30;;;5.60;99.90;;;;;;4994456;28;20600;-55
2023/01/10 04:45:47;;;;;;;6.10;3.70;;;5.60;99.90;;;;;;4993439;28;20572;-56
2023/01/10 04:48:14;;;;;;;6.20;4.17;;;5.60;99.90;;;;;;4994397;28;20499;-55
2023/01/10 04:50:41;;;;;;;5.77;3.70;;;5.70;99.90;;;;;;4994349;28;21071;-57
2023/01/10 04:53:07;;;;;;;4.13;3.30;;;5.70;99.90;;;;;;4992907;28;20515;-56
2023/01/10 04:55:34;;;;;;;4.83;3.80;;;5.70;99.90;;;;;;4993342;28;20491;-56
2023/01/10 04:58:03;;;;;;;9.63;3.80;;;5.70;99.90;;;;;;5000711;28;20468;-57
2023/01/10 05:00:30;;;;;;;9.63;4.83;;;5.70;99.90;;;;;;5006905;28;20459;-55
2023/01/10 05:02:56;;;;;;;7.37;4.07;;;5.60;99.90;;;;;;5007834;28;20487;-57
2023/01/10 05:05:23;;;;;;;8.90;4.20;;;5.70;99.90;;;;;;5009205;28;20463;-57
2023/01/10 05:07:50;;;;;;;10.17;4.40;;;5.70;99.90;;;;;;5004891;28;20474;-56
2023/01/10 05:10:17;;;;;;;5.77;4.27;;;5.70;99.90;;;;;;4994625;28;20479;-56
2023/01/10 05:12:45;;;;;;;14.53;4.90;;;5.70;99.90;;;;;;4992622;28;20518;-55
2023/01/10 05:15:13;;;;;;;7.17;4.40;;;5.70;99.90;;;;;;4986460;28;20468;-57
2023/01/10 05:17:40;;;;;;;6.00;3.90;;;5.70;99.90;;;;;;4986208;28;20539;-55
2023/01/10 05:20:08;;;;;;;10.23;4.30;;;5.70;99.90;;;;;;4990502;28;20913;-57
2023/01/10 05:22:34;;;;;;;5.97;4.30;;;5.70;99.90;;;;;;4994157;28;20508;-56
2023/01/10 05:25:01;;;;;;;10.53;4.97;;;5.70;99.90;;;;;;4994300;28;20476;-56
2023/01/10 05:27:27;;;;;;;7.90;4.57;;;5.70;99.90;;;;;;4994824;28;20506;-56
2023/01/10 05:29:54;;;;;;;3.93;3.63;;;5.70;99.90;;;;;;4993987;28;20523;-57
2023/01/10 05:32:22;;;;;;;5.60;4.33;;;5.70;99.90;;;;;;4999554;28;20626;-56
2023/01/10 05:34:49;;;;;;;11.03;4.70;;;5.70;99.90;;;;;;5007207;28;20471;-56
2023/01/10 05:37:16;;;;;;;7.93;4.03;;;5.70;99.90;;;;;;5006528;28;20467;-56
2023/01/10 05:39:42;;;;;;;9.20;4.23;;;5.70;99.90;;;;;;5005670;28;21009;-55
2023/01/10 05:42:09;;;;;;;11.43;4.63;;;5.70;99.90;;;;;;4995005;28;20534;-59
2023/01/10 05:44:35;;;;;;;6.07;4.50;;;5.70;99.90;;;;;;5006000;23;20486;-55
2023/01/10 05:47:02;;;;;;;8.37;4.70;;;5.70;99.90;;;;;;4995968;28;21071;-56
2023/01/10 05:49:30;;;;;;;8.40;4.50;;;5.80;99.90;;;;;;4991739;28;20518;-54
2023/01/10 05:51:56;;;;;;;9.40;4.80;;;5.70;99.90;;;;;;4990645;28;20551;-55
2023/01/10 05:54:23;;;;;;;6.67;4.93;;;5.80;99.90;;;;;;4994606;28;20488;-55
2023/01/10 05:56:50;;;;;;;16.20;4.93;;;5.70;99.90;;;;;;4992378;28;20500;-55
2023/01/10 05:59:16;;;;;;;11.13;5.20;;;5.70;99.90;;;;;;4991224;28;20540;-56
2023/01/10 06:01:43;;;;;;;11.37;5.17;;;5.70;99.90;;;;;;4995622;28;20463;-55
2023/01/10 06:04:09;;;;;;;10.07;4.80;;;5.70;99.90;;;;;;4992232;28;20499;-54
2023/01/10 06:06:37;;;;;;;7.43;4.20;;;5.70;99.90;;;;;;4989164;28;20526;-55
2023/01/10 06:09:04;;;;;;;11.53;4.97;;;5.70;99.90;;;;;;4994111;28;20506;-54
2023/01/10 06:11:35;;;;;;;7.93;4.40;;;5.70;99.90;;;;;;4997408;28;20882;-54
2023/01/10 06:14:02;;;;;;;6.90;4.27;;;5.70;99.90;;;;;;4992445;28;20472;-54
2023/01/10 06:16:29;;;;;;;7.47;4.33;;;5.70;99.90;;;;;;4989589;28;20487;-56
2023/01/10 06:18:55;;;;;;;13.53;4.90;;;5.70;99.90;;;;;;4992213;28;20502;-55
2023/01/10 06:21:22;;;;;;;8.13;4.67;;;5.60;99.90;;;;;;4993562;28;21252;-55
2023/01/10 06:23:50;;;;;;;12.23;5.40;;;5.70;99.90;;;;;;4992291;28;20502;-53
2023/01/10 06:26:17;;;;;;;11.37;5.03;;;5.70;99.90;;;;;;4989812;28;20515;-57
2023/01/10 06:28:44;;;;;;;15.07;6.37;;;5.70;99.90;;;;;;4987246;28;20464;-56
2023/01/10 06:31:10;;;;;;;7.03;4.20;;;5.70;99.90;;;;;;4989385;28;20849;-56
2023/01/10 06:33:40;;;;;;;10.20;4.20;;;5.70;99.90;;;;;;4989736;28;20464;-55
2023/01/10 06:36:07;;;;;;;9.20;4.80;;;5.70;99.90;;;;;;4988060;28;20486;-56
2023/01/10 06:38:34;;;;;;;11.47;4.53;;;5.70;99.90;;;;;;4982514;28;20471;-56
2023/01/10 06:41:11;;;;;;;13.73;4.80;;;5.70;99.90;;;;;;4989201;28;20523;-56
2023/01/10 06:43:38;;;;;;;10.47;4.57;;;5.70;99.90;;;;;;4986615;28;20496;-55
2023/01/10 06:46:08;;;;;;;10.90;4.70;;;5.70;99.90;;;;;;4987257;28;20527;-57
2023/01/10 06:48:35;;;;;;;9.40;4.80;;;5.70;99.90;;;;;;4986107;28;20461;-57
2023/01/10 06:51:01;;;;;;;13.70;5.40;;;5.70;99.90;;;;;;4990203;28;20525;-54
2023/01/10 06:53:28;;;;;;;8.53;4.47;;;5.70;99.90;;;;;;4988483;28;20496;-55
2023/01/10 06:55:56;;;;;;;6.10;3.90;;;5.70;99.90;;;;;;4989065;28;20492;-56
2023/01/10 06:58:24;;;;;;;10.77;5.37;;;5.70;99.90;;;;;;4993444;28;20566;-55
2023/01/10 07:00:51;;;;;;;10.27;5.50;;;5.80;99.90;;;;;;4987863;28;20520;-55
2023/01/10 07:03:18;;;;;;;11.33;5.50;;;5.80;99.90;;;;;;4983795;28;20514;-54
2023/01/10 07:05:44;;;;;;;5.27;4.27;;;5.70;99.90;;;;;;4987248;28;20517;-54
2023/01/10 07:08:11;;;;;;;8.37;4.40;;;5.80;99.90;;;;;;4987857;28;20523;-56
2023/01/10 07:10:40;;;;;;;12.77;5.27;;;5.80;99.90;;;;;;4986217;28;20487;-55
2023/01/10 07:13:07;;;;;;;14.40;5.00;;;5.80;99.90;;;;;;4987267;28;20468;-55
2023/01/10 07:15:35;;;;;;;9.67;4.83;;;5.80;99.90;;;;;;4990153;28;20496;-55
2023/01/10 07:18:02;;;;;;;12.60;6.13;;;5.80;99.90;;;;;;4988306;28;20491;-55
2023/01/10 07:20:29;;;;;;;9.07;4.93;;;5.80;99.90;;;;;;4987048;28;20471;-56
2023/01/10 07:22:56;;;;;;;13.60;7.47;;;5.80;99.90;;;;;;4989319;28;20954;-56
2023/01/10 07:25:24;;;;;;;9.27;5.03;;;5.80;99.90;;;;;;4987077;28;20530;-55
2023/01/10 07:27:50;;;;;;;10.97;5.40;;;5.80;99.90;;;;;;4985268;28;20503;-56
2023/01/10 07:30:17;;;;;;;11.67;4.90;;;5.80;99.90;;;;;;4989870;28;20534;-56
2023/01/10 07:32:45;;;;;;;8.50;4.80;;;5.80;99.90;;;;;;4990994;28;20610;-56
2023/01/10 07:35:12;;;;;;;17.50;5.33;;;5.80;99.90;;;;;;4989613;28;20483;-55
2023/01/10 07:37:38;;;;;;;14.40;5.10;;;5.80;99.90;;;;;;4985350;28;20985;-56
2023/01/10 07:40:06;;;;;;;7.63;4.97;;;5.80;99.90;;;;;;4988660;28;20522;-55
2023/01/10 07:42:33;;;;;;;8.30;4.60;;;5.80;99.90;;;;;;4989748;28;20495;-55
2023/01/10 07:44:59;;;;;;;23.97;7.27;;;5.80;99.90;;;;;;4986639;28;20569;-55
2023/01/10 07:47:27;;;;;;;10.17;5.30;;;5.90;99.90;;;;;;4987121;28;20558;-55
2023/01/10 07:49:55;;;;;;;7.77;4.50;;;5.80;99.90;;;;;;4987302;28;20854;-58
2023/01/10 07:52:21;;;;;;;11.50;5.00;;;5.80;99.90;;;;;;4985810;28;20504;-55
2023/01/10 07:54:48;;;;;;;16.13;5.90;;;5.70;99.90;;;;;;4983084;28;20522;-55
2023/01/10 07:57:14;;;;;;;15.00;5.40;;;5.70;99.90;;;;;;4989578;28;20507;-56
2023/01/10 07:59:41;;;;;;;10.53;5.27;;;5.70;99.90;;;;;;4986724;28;20557;-55
2023/01/10 08:02:09;;;;;;;14.50;5.50;;;5.70;99.90;;;;;;4994488;28;20971;-56
2023/01/10 08:04:37;;;;;;;11.37;5.27;;;5.70;99.90;;;;;;4987642;28;20253;-55
2023/01/10 08:07:05;;;;;;;8.33;4.67;;;5.70;99.90;;;;;;4983272;28;20835;-54
2023/01/10 08:09:31;;;;;;;9.63;4.63;;;5.70;99.90;;;;;;4987862;28;20514;-56
2023/01/10 08:11:58;;;;;;;9.17;5.30;;;5.80;99.90;;;;;;4985447;28;20495;-54
2023/01/10 08:14:25;;;;;;;15.03;6.30;;;5.80;99.90;;;;;;4983611;28;20461;-55
2023/01/10 08:16:51;;;;;;;11.23;5.80;;;5.80;99.90;;;;;;4989224;28;21051;-56
2023/01/10 08:19:18;;;;;;;9.67;5.30;;;5.80;99.90;;;;;;4988403;28;20896;-55
2023/01/10 08:21:44;;;;;;;11.20;5.20;;;5.80;99.90;;;;;;4987489;28;20484;-55
2023/01/10 08:24:12;;;;;;;12.63;5.63;;;5.80;99.90;;;;;;4987880;28;20530;-57
2023/01/10 08:26:39;;;;;;;8.60;5.00;;;5.90;99.90;;;;;;4985530;28;21053;-56
2023/01/10 08:29:06;;;;;;;11.10;5.40;;;6.00;99.90;;;;;;4989058;28;20507;-55
2023/01/10 08:31:32;;;;;;;9.50;5.87;;;6.10;99.90;;;;;;4990926;28;20582;-52
2023/01/10 08:33:59;;;;;;;12.73;7.00;;;6.20;99.90;;;;;;4992811;28;20503;-51
2023/01/10 08:36:27;;;;;;;11.00;6.33;;;6.30;99.90;;;;;;4985651;28;20487;-52
2023/01/10 08:38:55;;;;;;;14.43;6.23;;;6.30;99.90;;;;;;4986336;28;20529;-52
2023/01/10 08:41:23;;;;;;;12.50;5.90;;;6.40;99.90;;;;;;4988583;28;20495;-52
2023/01/10 08:43:50;;;;;;;9.07;6.17;;;6.40;99.90;;;;;;4987692;28;20555;-52
2023/01/10 08:46:17;;;;;;;9.90;5.50;;;6.40;99.90;;;;;;4987417;28;20499;-52
2023/01/10 08:48:44;;;;;;;10.37;5.60;;;6.40;99.90;;;;;;4988864;28;20471;-52
2023/01/10 08:51:10;;;;;;;16.90;6.30;;;6.40;99.90;;;;;;4989116;28;20487;-51
2023/01/10 08:53:39;;;;;;;15.33;6.73;;;6.40;99.90;;;;;;4985105;28;20463;-51
2023/01/10 08:56:06;;;;;;;12.20;6.20;;;6.40;99.90;;;;;;4986975;28;20483;-51
2023/01/10 08:58:35;;;;;;;13.63;6.57;;;6.40;99.90;;;;;;4987345;28;20467;-52
2023/01/10 09:01:04;;;;;;;21.53;7.20;;;6.50;99.90;;;;;;4986532;28;20500;-53
2023/01/10 09:03:31;;;;;;;11.40;6.40;;;6.50;99.90;;;;;;4989641;28;20515;-51
2023/01/10 09:05:59;;;;;;;8.17;5.43;;;6.60;99.90;;;;;;4989990;28;20486;-51
2023/01/10 09:08:26;;;;;;;7.83;5.70;;;6.70;99.90;;;;;;4987129;28;20459;-52
2023/01/10 09:10:52;;;;;;;14.53;6.10;;;6.70;99.90;;;;;;4976723;28;20495;-51
2023/01/10 09:13:19;;;;;;;13.00;6.00;;;6.60;99.90;;;;;;4984299;28;20985;-51
2023/01/10 09:15:47;;;;;;;9.63;5.23;;;6.60;99.90;;;;;;4983507;28;20589;-53
2023/01/10 09:18:14;;;;;;;14.23;7.13;;;6.60;99.90;;;;;;4990203;28;20467;-53
2023/01/10 09:20:42;;;;;;;13.93;7.00;;;6.40;99.90;;;;;;4991996;28;20447;-53
2023/01/10 09:23:10;;;;;;;11.23;6.70;;;6.50;99.90;;;;;;4990199;28;21005;-53
2023/01/10 09:25:37;;;;;;;7.60;6.00;;;6.50;99.90;;;;;;4986457;28;20515;-51
2023/01/10 09:28:05;;;;;;;14.33;7.00;;;6.50;99.90;;;;;;4992424;28;20499;-51
2023/01/10 09:30:32;;;;;;;15.30;7.00;;;6.60;99.90;;;;;;4991928;28;20479;-52
2023/01/10 09:33:00;;;;;;;9.60;6.07;;;6.50;99.90;;;;;;4987590;28;20483;-51
2023/01/10 09:35:29;;;;;;;14.30;6.27;;;6.50;99.90;;;;;;4985408;28;20549;-52
2023/01/10 09:37:57;;;;;;;11.67;6.30;;;6.50;99.90;;;;;;4991450;28;20553;-51
2023/01/10 09:40:32;;;;;;;10.20;5.27;;;6.50;99.90;;;;;;4984565;28;20459;-51
2023/01/10 09:43:09;;;;;;;12.03;6.50;;;6.60;99.90;;;;;;4989900;28;20471;-52
2023/01/10 09:45:43;;;;;;;8.87;6.67;;;6.80;99.90;;;;;;4988397;28;20593;-52
2023/01/10 09:48:19;;;;;;;14.23;6.70;;;6.90;99.90;;;;;;4990456;28;20533;-52
2023/01/10 09:51:04;;;;;;;10.87;6.50;;;7.10;99.90;;;;;;4992667;28;20545;-51
2023/01/10 09:53:34;;;;;;;9.67;4.87;;;7.70;23.10;;;;;;4982758;28;20468;-52
2023/01/10 09:56:01;;;;;;;17.57;7.17;;;7.90;57.90;;;;;;4988190;28;20496;-51
2023/01/10 09:58:31;;;;;;;13.20;5.60;;;7.70;56.50;;;;;;4977417;28;20468;-51
2023/01/10 10:00:59;;;;;;;12.63;6.00;;;7.60;55.30;;;;;;4983770;28;20463;-52
2023/01/10 10:03:34;;;;;;;17.77;5.57;;;7.50;49.10;;;;;;4984875;28;20523;-51
2023/01/10 10:06:02;;;;;;;12.53;6.87;;;7.30;40.80;;;;;;4982397;28;20924;-52
2023/01/10 10:08:30;;;;;;;13.50;5.83;;;7.20;36.10;;;;;;4988968;28;20901;-53
2023/01/10 10:11:10;;;;;;;9.63;6.00;;;7.10;30.90;;;;;;4984293;28;20491;-53
2023/01/10 10:13:48;;;;;;;7.77;5.23;;;7.10;25.10;;;;;;4984935;28;20846;-52
2023/01/10 10:16:24;;;;;;;9.07;5.40;;;7.10;27.80;;;;;;4997467;28;20494;-51
2023/01/10 10:19:02;;;;;;;15.00;6.10;;;7.10;25.00;;;;;;4986178;28;20541;-51
2023/01/10 10:21:40;;;;;;;15.73;7.27;;;7.10;26.90;;;;;;4990385;28;20478;-51
2023/01/10 10:24:19;;;;;;;13.40;6.30;;;7.10;21.20;;;;;;4986057;28;20463;-51
2023/01/10 10:26:56;;;;;;;14.20;6.30;;;7.10;24.30;;;;;;4988612;28;20480;-53
2023/01/10 10:30:00;;;;;;;20.53;6.43;;;7.20;24.30;;;;;;4983649;28;20460;-52
2023/01/10 10:32:50;;;;;;;11.57;5.87;;;7.20;22.90;;;;;;4965021;28;20972;-53
2023/01/10 10:35:27;;;;;;;16.27;6.27;;;7.10;30.90;;;;;;4986294;28;20483;-53
2023/01/10 10:37:56;;;;;;;19.53;5.40;;;7.20;32.90;;;;;;4987037;28;20490;-52
2023/01/10 10:40:25;;;;;;;17.03;6.03;;;7.10;35.00;;;;;;4984183;28;20914;-52
2023/01/10 10:42:54;;;;;;;12.60;5.73;;;7.10;28.10;;;;;;4977464;28;20471;-51
2023/01/10 10:45:29;;;;;;;11.50;5.23;;;7.10;29.70;;;;;;4982238;28;20492;-51
2023/01/10 10:48:00;;;;;;;9.80;5.20;;;7.20;27.20;;;;;;4977356;28;20994;-51
2023/01/10 10:50:31;;;;;;;10.83;5.20;;;7.30;27.80;;;;;;4983972;28;20459;-53
2023/01/10 10:53:01;;;;;;;13.30;5.80;;;7.40;29.40;;;;;;4988213;28;20510;-53
2023/01/10 10:55:31;;;;;;;12.43;4.83;;;7.40;34.70;;;;;;4986402;28;20566;-51
2023/01/10 10:57:57;;;;;;;14.33;6.17;;;7.50;43.20;;;;;;4986178;28;20506;-52
2023/01/10 11:00:25;;;;;;;8.60;4.70;;;7.50;48.70;;;;;;4984073;28;20464;-52
2023/01/10 11:02:57;;;;;;;10.53;4.73;;;7.40;48.80;;;;;;4986049;28;20475;-53
2023/01/10 11:05:32;;;;;;;19.60;6.00;;;7.50;49.30;;;;;;4983996;28;20519;-53
2023/01/10 11:08:03;;;;;;;15.00;5.63;;;7.40;49.60;;;;;;4989311;28;20490;-52
2023/01/10 11:10:37;;;;;;;16.87;6.43;;;7.30;55.10;;;;;;4974615;28;20471;-52
2023/01/10 11:13:06;;;;;;;6.50;4.30;;;7.30;47.50;;;;;;4983559;28;20471;-51
2023/01/10 11:15:38;;;;;;;11.70;5.20;;;7.30;49.80;;;;;;4978990;28;20529;-52
2023/01/10 11:18:07;;;;;;;16.17;5.13;;;7.40;41.40;;;;;;4981242;28;20525;-52
2023/01/10 11:20:36;;;;;;;13.83;4.47;;;7.50;46.50;;;;;;4973084;28;20890;-52
2023/01/10 11:23:04;;;;;;;11.20;4.27;;;7.60;48.30;;;;;;4983021;28;20465;-52
2023/01/10 11:25:31;;;;;;;10.83;5.10;;;7.70;48.10;;;;;;4988356;28;20529;-52
2023/01/10 11:28:00;;;;;;;19.40;4.60;;;7.70;56.60;;;;;;4984767;28;20500;-53
2023/01/10 11:30:30;;;;;;;8.67;4.07;;;7.70;69.40;;;;;;4969825;28;20484;-52
2023/01/10 11:33:00;;;;;;;11.60;4.07;;;7.70;60.70;;;;;;4971860;28;20563;-51
2023/01/10 11:35:30;;;;;;;16.53;4.40;;;7.70;65.60;;;;;;4968738;28;20606;-51
2023/01/10 11:38:03;;;;;;;13.47;4.30;;;7.70;63.00;;;;;;4976373;28;20480;-52
2023/01/10 11:40:31;;;;;;;21.80;4.50;;;7.70;70.80;;;;;;4986099;28;20492;-51
2023/01/10 11:42:59;;;;;;;11.20;3.80;;;7.70;72.30;;;;;;4984834;28;20575;-52
2023/01/10 11:45:31;;;;;;;18.53;4.90;;;7.70;73.10;;;;;;4990173;28;20491;-55
2023/01/10 11:48:17;;;;;;;18.00;4.13;;;7.80;73.40;;;;;;4987575;28;20467;-54
2023/01/10 11:50:49;;;;;;;15.80;3.70;;;7.70;77.10;;;;;;4976119;28;20523;-56
2023/01/10 11:53:35;;;;;;;12.53;4.67;;;7.80;72.30;;;;;;4978753;28;20466;-54
2023/01/10 11:56:03;;;;;;;11.77;3.60;;;7.80;66.40;;;;;;4979844;28;20483;-54
2023/01/10 11:58:32;;;;;;;8.63;3.03;;;7.90;77.70;;;;;;4982332;28;20891;-54
2023/01/10 12:00:59;;;;;;;12.03;2.90;;;7.90;71.10;;;;;;4978484;28;20496;-56
2023/01/10 12:03:28;;;;;;;17.87;3.77;;;8.00;73.00;;;;;;4980142;28;20468;-54
2023/01/10 12:05:59;;;;;;;18.53;4.30;;;8.00;80.50;;;;;;4980929;28;20993;-53
2023/01/10 12:08:30;;;;;;;7.10;3.13;;;8.00;77.10;;;;;;4989632;28;20459;-56
2023/01/10 12:11:02;;;;;;;11.17;3.80;;;8.00;91.70;;;;;;4990689;28;20514;-56
2023/01/10 12:13:30;;;;;;;11.50;3.80;;;8.00;99.90;;;;;;4978654;28;20479;-55
2023/01/10 12:16:17;;;;;;;13.53;4.07;;;8.10;99.90;;;;;;4991191;28;20526;-54
2023/01/10 12:18:44;;;;;;;13.07;3.83;;;8.50;99.90;;;;;;4985029;28;20494;-55
2023/01/10 12:21:14;;;;;;;8.70;3.30;;;8.90;99.90;;;;;;4990526;28;20902;-54
2023/01/10 12:23:44;;;;;;;12.27;3.30;;;9.30;99.90;;;;;;4987143;28;20564;-54
2023/01/10 12:26:13;;;;;;;10.90;3.23;;;9.70;99.90;;;;;;4988864;28;20496;-55
2023/01/10 12:28:43;;;;;;;12.27;2.80;;;9.30;99.90;;;;;;4992258;28;20454;-55
2023/01/10 12:31:13;;;;;;;7.23;3.07;;;8.90;99.90;;;;;;4990663;28;20571;-55
2023/01/10 12:33:45;;;;;;;15.83;3.80;;;8.70;99.90;;;;;;4989043;28;20448;-55
2023/01/10 12:36:28;;;;;;;16.40;4.33;;;8.50;99.90;;;;;;4987555;28;20522;-55
2023/01/10 12:39:03;;;;;;;16.27;3.33;;;8.30;99.90;;;;;;4985903;28;20470;-54
2023/01/10 12:44:28;;;;;;;15.00;4.30;;;8.20;99.90;;;;;;4985141;28;20459;-55
2023/01/10 12:47:00;;;;;;;13.03;3.17;;;8.00;99.90;;;;;;4983585;28;21031;-55
2023/01/10 12:49:30;;;;;;;7.60;3.37;;;8.00;99.90;;;;;;4989600;28;20970;-55
2023/01/10 12:52:03;;;;;;;14.87;4.60;;;8.10;96.70;;;;;;4993743;28;20585;-54
2023/01/10 12:54:32;;;;;;;16.17;4.17;;;8.00;99.90;;;;;;4991870;28;20456;-54
2023/01/10 12:57:01;;;;;;;10.87;3.20;;;8.00;99.90;;;;;;4989150;28;20468;-54
2023/01/10 12:59:36;;;;;;;9.00;3.03;;;7.90;99.90;;;;;;4987842;28;20970;-55
2023/01/10 13:02:04;;;;;;;14.23;3.60;;;7.90;99.90;;;;;;4993030;28;20479;-54
2023/01/10 13:04:34;;;;;;;14.37;3.90;;;7.90;99.90;;;;;;4984905;28;20987;-54
2023/01/10 13:07:01;;;;;;;13.33;4.23;;;7.90;99.90;;;;;;4986798;28;20522;-55
2023/01/10 13:09:30;;;;;;;11.97;3.50;;;8.00;99.90;;;;;;4988804;28;20992;-55
2023/01/10 13:12:01;;;;;;;10.90;3.37;;;7.90;99.90;;;;;;4986065;28;20914;-55
2023/01/10 13:14:37;;;;;;;20.47;3.43;;;7.90;99.90;;;;;;4991382;28;20563;-55
2023/01/10 13:17:16;;;;;;;14.00;3.97;;;7.90;99.90;;;;;;4988623;28;20569;-54
2023/01/10 13:19:42;;;;;;;8.60;2.87;;;7.90;99.10;;;;;;4991987;28;21008;-54